Time;durP1;ratioP1;P1;durP2;ratioP2;P2;SDS_P1;SDS_P2;PMS_P1;PMS_P2;Temp;Humidity;BMP_temperature;BMP_pressure;BME280_temperature;BME280_humidity;BME280_pressure;Samples;Min_cycle;Max_cycle;Signal;HPM_P1;HPM_P2
2022/10/07 00:01:29;;;;;;;10.05;2.55;;;10.60;99.90;;;;;;5133377;27;20164;-53
2022/10/07 00:03:55;;;;;;;7.72;2.47;;;10.50;99.90;;;;;;5133131;27;20168;-53
2022/10/07 00:06:21;;;;;;;10.45;2.25;;;10.50;99.90;;;;;;5133248;27;20204;-54
2022/10/07 00:08:51;;;;;;;9.63;2.75;;;10.50;99.90;;;;;;5133666;27;20164;-54
2022/10/07 00:11:26;;;;;;;11.07;3.17;;;10.50;99.90;;;;;;5133525;27;20235;-53
2022/10/07 00:13:56;;;;;;;8.32;2.17;;;10.50;99.90;;;;;;5133203;27;20163;-53
2022/10/07 00:16:27;;;;;;;9.85;2.28;;;10.50;99.90;;;;;;5133435;27;20164;-54
2022/10/07 00:18:56;;;;;;;6.32;2.33;;;10.50;99.90;;;;;;5133405;27;20202;-54
2022/10/07 00:21:23;;;;;;;11.30;3.13;;;10.50;99.90;;;;;;5133106;27;20152;-55
2022/10/07 00:23:49;;;;;;;7.97;2.35;;;10.50;99.90;;;;;;5133038;27;20625;-54
2022/10/07 00:26:18;;;;;;;7.22;2.10;;;10.50;99.90;;;;;;5133369;27;20298;-54
2022/10/07 00:28:45;;;;;;;10.52;2.83;;;10.60;99.90;;;;;;5133651;27;20547;-56
2022/10/07 00:31:16;;;;;;;5.43;2.22;;;10.50;99.90;;;;;;5133271;27;20626;-56
2022/10/07 00:33:42;;;;;;;7.00;2.03;;;10.60;99.90;;;;;;5132903;27;20211;-53
2022/10/07 00:36:13;;;;;;;6.13;2.10;;;10.60;99.90;;;;;;5132851;27;20160;-56
2022/10/07 00:38:39;;;;;;;7.25;2.72;;;10.60;99.90;;;;;;5132822;27;20194;-54
2022/10/07 00:41:07;;;;;;;5.00;1.90;;;10.60;99.90;;;;;;5131650;27;20167;-56
2022/10/07 00:43:33;;;;;;;7.43;2.42;;;10.60;99.90;;;;;;5132823;27;20160;-54
2022/10/07 00:46:11;;;;;;;6.85;1.70;;;10.60;99.90;;;;;;5132418;27;20203;-57
2022/10/07 00:48:38;;;;;;;7.72;2.45;;;10.50;99.90;;;;;;5132779;27;20160;-56
2022/10/07 00:51:07;;;;;;;7.15;2.17;;;10.50;99.90;;;;;;5132966;27;20174;-56
2022/10/07 00:53:36;;;;;;;6.35;2.10;;;10.50;99.90;;;;;;5132673;27;20156;-57
2022/10/07 00:56:04;;;;;;;8.45;2.45;;;10.50;99.90;;;;;;5132523;27;20241;-57
2022/10/07 00:58:33;;;;;;;6.93;2.85;;;10.40;99.90;;;;;;5132694;27;20641;-54
2022/10/07 01:00:59;;;;;;;6.25;2.30;;;10.30;99.90;;;;;;5132775;27;20160;-56
2022/10/07 01:03:25;;;;;;;7.10;2.53;;;10.30;99.90;;;;;;5131355;28;20175;-56
2022/10/07 01:05:50;;;;;;;9.88;2.25;;;10.30;99.90;;;;;;5132864;27;20207;-55
2022/10/07 01:08:17;;;;;;;7.65;2.67;;;10.20;99.90;;;;;;5133186;27;20163;-54
2022/10/07 01:11:01;;;;;;;7.00;2.63;;;10.20;99.90;;;;;;5132930;27;20172;-56
2022/10/07 01:13:37;;;;;;;8.38;2.60;;;10.20;99.90;;;;;;5132533;27;20574;-57
2022/10/07 01:16:22;;;;;;;7.22;2.33;;;10.20;99.90;;;;;;5132551;27;20164;-57
2022/10/07 01:19:25;;;;;;;7.85;2.60;;;10.20;99.90;;;;;;5133055;27;20574;-56
2022/10/07 01:22:18;;;;;;;8.77;2.47;;;10.10;99.90;;;;;;5116913;27;20590;-57
2022/10/07 01:25:14;;;;;;;9.02;2.72;;;10.10;99.90;;;;;;5132564;27;20596;-57
2022/10/07 01:27:47;;;;;;;4.78;2.30;;;10.10;99.90;;;;;;5132473;27;20160;-56
2022/10/07 01:30:13;;;;;;;5.43;2.08;;;9.90;99.90;;;;;;5132419;27;20160;-56
2022/10/07 01:33:10;;;;;;;9.02;2.58;;;9.80;99.90;;;;;;5132387;27;20682;-57
2022/10/07 01:35:36;;;;;;;12.02;3.05;;;9.80;99.90;;;;;;5131675;28;20259;-56
2022/10/07 01:38:08;;;;;;;12.68;2.90;;;9.80;99.90;;;;;;5132323;27;20247;-55
2022/10/07 01:40:39;;;;;;;9.60;3.00;;;9.90;99.90;;;;;;5132365;27;20203;-56
2022/10/07 01:43:05;;;;;;;6.30;2.55;;;9.90;99.90;;;;;;5132260;27;20221;-56
2022/10/07 01:45:34;;;;;;;8.20;2.92;;;9.90;99.90;;;;;;5132427;27;20207;-53
2022/10/07 01:48:00;;;;;;;10.20;2.40;;;9.90;99.90;;;;;;5132449;27;20176;-53
2022/10/07 01:50:28;;;;;;;4.82;2.47;;;9.90;99.90;;;;;;5132059;27;20572;-54
2022/10/07 01:53:14;;;;;;;11.40;2.70;;;9.90;99.90;;;;;;5132265;27;20535;-54
2022/10/07 01:55:54;;;;;;;8.50;2.50;;;9.90;99.90;;;;;;5132113;27;20216;-53
2022/10/07 01:58:26;;;;;;;7.30;2.67;;;9.90;99.90;;;;;;5134701;27;20167;-53
2022/10/07 02:01:14;;;;;;;6.55;2.53;;;9.80;99.90;;;;;;5135806;27;20168;-53
2022/10/07 02:03:53;;;;;;;8.57;2.10;;;9.70;99.90;;;;;;5115147;27;20187;-53
2022/10/07 02:06:45;;;;;;;3.78;1.92;;;9.70;99.90;;;;;;5135731;27;20586;-53
2022/10/07 02:09:40;;;;;;;4.88;2.10;;;9.70;99.90;;;;;;5135663;27;20167;-54
2022/10/07 02:12:15;;;;;;;6.10;2.20;;;9.70;99.90;;;;;;5135645;27;20171;-54
2022/10/07 02:14:55;;;;;;;8.30;2.53;;;9.70;99.90;;;;;;5135462;27;20163;-54
2022/10/07 02:17:23;;;;;;;6.63;2.10;;;9.70;99.90;;;;;;5135678;27;20171;-54
2022/10/07 02:19:53;;;;;;;5.43;2.15;;;9.70;99.90;;;;;;5135583;27;20530;-55
2022/10/07 02:22:21;;;;;;;9.35;3.05;;;9.80;99.90;;;;;;5135403;27;20624;-53
2022/10/07 02:24:53;;;;;;;9.68;2.22;;;9.80;99.90;;;;;;5135462;27;20676;-55
2022/10/07 02:27:27;;;;;;;7.25;2.60;;;9.70;99.90;;;;;;5135243;27;20744;-53
2022/10/07 02:29:58;;;;;;;6.68;2.28;;;9.70;99.90;;;;;;5135245;27;20163;-54
2022/10/07 02:32:26;;;;;;;9.45;2.58;;;9.70;99.90;;;;;;5135250;27;20172;-54
2022/10/07 02:34:58;;;;;;;10.88;2.45;;;9.70;99.90;;;;;;5135148;27;20164;-54
2022/10/07 02:37:28;;;;;;;9.43;3.03;;;9.70;99.90;;;;;;5135086;27;20160;-54
2022/10/07 02:39:55;;;;;;;9.65;2.33;;;9.70;99.90;;;;;;5135373;27;20218;-54
2022/10/07 02:42:43;;;;;;;8.38;2.83;;;9.70;99.90;;;;;;5134946;27;20204;-54
2022/10/07 02:45:23;;;;;;;7.00;2.38;;;9.70;99.90;;;;;;5135137;27;20204;-54
2022/10/07 02:47:54;;;;;;;7.47;2.72;;;9.60;99.90;;;;;;5133605;27;20186;-53
2022/10/07 02:50:24;;;;;;;4.78;2.40;;;9.60;99.90;;;;;;5134898;27;20163;-53
2022/10/07 02:52:53;;;;;;;9.70;2.78;;;9.60;99.90;;;;;;5134749;27;20582;-53
2022/10/07 02:55:22;;;;;;;10.55;2.30;;;9.50;99.90;;;;;;5134638;27;20208;-54
2022/10/07 02:57:51;;;;;;;12.05;2.22;;;9.40;99.90;;;;;;5134740;27;20187;-54
2022/10/07 03:00:18;;;;;;;6.10;1.80;;;9.50;99.90;;;;;;5134439;27;20168;-54
2022/10/07 03:02:49;;;;;;;4.30;2.10;;;9.50;99.90;;;;;;5135023;27;20628;-56
2022/10/07 03:05:19;;;;;;;4.40;1.80;;;9.50;99.90;;;;;;5133650;27;20739;-56
2022/10/07 03:07:51;;;;;;;5.80;2.28;;;9.40;99.90;;;;;;5134781;27;20193;-56
2022/10/07 03:10:18;;;;;;;6.10;2.30;;;9.40;99.90;;;;;;5134644;27;20213;-54
2022/10/07 03:12:44;;;;;;;5.95;2.20;;;9.40;99.90;;;;;;5135053;27;20168;-56
2022/10/07 03:15:10;;;;;;;11.85;2.20;;;9.40;99.90;;;;;;5134471;27;20160;-56
2022/10/07 03:17:37;;;;;;;6.55;2.13;;;9.40;99.90;;;;;;5134569;27;20168;-56
2022/10/07 03:20:03;;;;;;;9.77;2.30;;;9.40;99.90;;;;;;5134556;27;20569;-56
2022/10/07 03:22:29;;;;;;;3.03;1.90;;;9.40;99.90;;;;;;5132937;27;20164;-56
2022/10/07 03:24:54;;;;;;;8.77;2.17;;;9.40;99.90;;;;;;5134322;27;20191;-56
2022/10/07 03:27:20;;;;;;;9.13;2.47;;;9.40;99.90;;;;;;5134075;27;20671;-55
2022/10/07 03:29:47;;;;;;;6.18;2.72;;;9.30;99.90;;;;;;5134337;27;20209;-56
2022/10/07 03:32:13;;;;;;;8.52;2.42;;;9.30;99.90;;;;;;5134792;27;20242;-56
2022/10/07 03:34:39;;;;;;;5.22;1.55;;;9.30;99.90;;;;;;5134198;27;20255;-56
2022/10/07 03:37:05;;;;;;;6.75;2.15;;;9.30;99.90;;;;;;5133898;27;20254;-56
2022/10/07 03:39:31;;;;;;;6.97;2.03;;;9.30;99.90;;;;;;5133844;27;20194;-55
2022/10/07 03:41:56;;;;;;;8.27;2.45;;;9.30;99.90;;;;;;5133804;27;20640;-56
2022/10/07 03:44:22;;;;;;;4.80;2.42;;;9.30;99.90;;;;;;5133718;27;20568;-55
2022/10/07 03:46:49;;;;;;;4.95;2.42;;;9.30;99.90;;;;;;5133932;27;20168;-55
2022/10/07 03:49:14;;;;;;;6.15;2.25;;;9.20;99.90;;;;;;5134260;27;20167;-55
2022/10/07 03:51:40;;;;;;;5.93;1.98;;;9.20;99.90;;;;;;5133594;27;20168;-56
2022/10/07 03:54:06;;;;;;;11.48;2.22;;;9.20;99.90;;;;;;5133449;27;20168;-56
2022/10/07 03:56:32;;;;;;;6.43;2.30;;;9.20;99.90;;;;;;5132137;27;20219;-55
2022/10/07 03:58:58;;;;;;;4.85;2.25;;;9.20;99.90;;;;;;5133484;27;20667;-56
2022/10/07 04:01:24;;;;;;;10.25;2.30;;;9.20;99.90;;;;;;5133425;27;20164;-55
2022/10/07 04:03:50;;;;;;;4.55;2.17;;;9.20;99.90;;;;;;5133361;27;20167;-55
2022/10/07 04:06:16;;;;;;;5.30;2.05;;;9.20;99.90;;;;;;5133917;27;20226;-55
2022/10/07 04:08:43;;;;;;;10.25;2.55;;;9.10;99.90;;;;;;5133646;27;20180;-55
2022/10/07 04:11:09;;;;;;;6.93;2.42;;;9.20;99.90;;;;;;5133514;27;20222;-54
2022/10/07 04:13:35;;;;;;;5.93;2.42;;;9.10;99.90;;;;;;5133233;27;20204;-56
2022/10/07 04:16:08;;;;;;;6.03;2.50;;;9.10;99.90;;;;;;5133481;27;20571;-55
2022/10/07 04:18:34;;;;;;;6.07;2.63;;;9.00;99.90;;;;;;5133190;27;20224;-55
2022/10/07 04:21:00;;;;;;;6.45;2.47;;;9.10;99.90;;;;;;5132534;27;20613;-55
2022/10/07 04:23:26;;;;;;;5.28;2.08;;;9.00;99.90;;;;;;5131307;27;20171;-55
2022/10/07 04:25:52;;;;;;;4.95;2.20;;;9.00;99.90;;;;;;5132477;27;20244;-55
2022/10/07 04:28:20;;;;;;;6.25;2.30;;;8.90;99.90;;;;;;5132797;27;20191;-55
2022/10/07 04:30:50;;;;;;;8.20;2.45;;;8.90;99.90;;;;;;5133406;27;20274;-55
2022/10/07 04:33:20;;;;;;;6.72;2.17;;;8.90;99.90;;;;;;5132820;27;20164;-54
2022/10/07 04:35:49;;;;;;;6.60;2.03;;;8.90;99.90;;;;;;5133148;27;20164;-56
2022/10/07 04:38:16;;;;;;;2.35;1.75;;;8.90;99.90;;;;;;5133234;27;20164;-55
2022/10/07 04:40:44;;;;;;;7.20;2.03;;;8.90;99.90;;;;;;5133452;27;20197;-55
2022/10/07 04:43:18;;;;;;;6.93;2.08;;;8.90;99.90;;;;;;5133099;27;20172;-54
2022/10/07 04:45:49;;;;;;;6.65;1.88;;;8.80;99.90;;;;;;5133208;27;20199;-55
2022/10/07 04:48:17;;;;;;;3.78;2.20;;;8.90;99.90;;;;;;5133143;27;20554;-55
2022/10/07 04:50:43;;;;;;;8.82;2.33;;;8.90;99.90;;;;;;5133352;27;20176;-54
2022/10/07 04:53:10;;;;;;;4.45;1.95;;;8.90;99.90;;;;;;5132695;27;20171;-54
2022/10/07 04:55:37;;;;;;;7.35;2.30;;;8.80;99.90;;;;;;5132665;27;20227;-54
2022/10/07 04:58:03;;;;;;;6.63;2.10;;;8.80;99.90;;;;;;5132677;27;20185;-54
2022/10/07 05:00:28;;;;;;;3.30;1.75;;;8.80;99.90;;;;;;5132695;27;20202;-54
2022/10/07 05:02:54;;;;;;;3.45;1.80;;;8.80;99.90;;;;;;5132667;27;20260;-54
2022/10/07 05:05:20;;;;;;;14.23;3.33;;;8.80;99.90;;;;;;5132779;27;20244;-54
2022/10/07 05:07:50;;;;;;;44.72;12.85;;;8.80;99.90;;;;;;5132852;27;20160;-53
2022/10/07 05:10:16;;;;;;;90.43;32.53;;;8.80;99.90;;;;;;5132899;27;20225;-54
2022/10/07 05:12:41;;;;;;;37.10;8.65;;;8.80;99.90;;;;;;5132798;27;20625;-55
2022/10/07 05:15:08;;;;;;;39.08;12.90;;;8.70;99.90;;;;;;5132547;27;20164;-54
2022/10/07 05:17:34;;;;;;;29.48;10.15;;;8.70;99.90;;;;;;5132523;27;20576;-53
2022/10/07 05:19:59;;;;;;;16.17;5.00;;;8.70;99.90;;;;;;5132654;27;20164;-54
2022/10/07 05:22:25;;;;;;;7.70;3.00;;;8.70;99.90;;;;;;5131159;27;20515;-53
2022/10/07 05:24:50;;;;;;;7.20;2.38;;;8.60;99.90;;;;;;5132299;27;20548;-53
2022/10/07 05:27:16;;;;;;;11.30;2.65;;;8.60;99.90;;;;;;5132458;27;20239;-53
2022/10/07 05:29:41;;;;;;;4.75;2.17;;;8.60;99.90;;;;;;5132789;27;20173;-55
2022/10/07 05:32:07;;;;;;;7.93;2.65;;;8.60;99.90;;;;;;5133017;27;20209;-54
2022/10/07 05:34:33;;;;;;;7.55;2.70;;;8.60;99.90;;;;;;5135630;27;20160;-54
2022/10/07 05:36:58;;;;;;;7.43;1.95;;;8.60;99.90;;;;;;5136090;27;20283;-53
2022/10/07 05:39:24;;;;;;;9.07;3.55;;;8.60;99.90;;;;;;5136177;27;20167;-54
2022/10/07 05:41:49;;;;;;;10.30;4.47;;;8.60;99.90;;;;;;5136089;27;20172;-54
2022/10/07 05:44:16;;;;;;;8.70;3.03;;;8.60;99.90;;;;;;5136159;27;20172;-54
2022/10/07 05:46:41;;;;;;;11.15;3.00;;;8.60;99.90;;;;;;5136401;27;20179;-54
2022/10/07 05:49:07;;;;;;;10.02;5.32;;;8.60;99.90;;;;;;5136278;27;20172;-54
2022/10/07 05:51:32;;;;;;;21.77;9.95;;;8.60;99.90;;;;;;5136030;27;20629;-53
2022/10/07 05:53:58;;;;;;;22.33;10.30;;;8.60;99.90;;;;;;5135808;27;20163;-54
2022/10/07 05:56:24;;;;;;;25.10;11.32;;;8.50;99.90;;;;;;5135733;27;20219;-53
2022/10/07 05:58:51;;;;;;;11.32;4.63;;;8.60;99.90;;;;;;5136132;27;20517;-54
2022/10/07 06:01:21;;;;;;;8.65;3.58;;;8.60;99.90;;;;;;5136009;27;20192;-53
2022/10/07 06:03:49;;;;;;;7.25;2.25;;;8.50;99.90;;;;;;5135689;27;20644;-53
2022/10/07 06:06:15;;;;;;;6.82;2.60;;;8.60;99.90;;;;;;5136165;27;20203;-54
2022/10/07 06:08:40;;;;;;;11.93;3.22;;;8.60;99.90;;;;;;5135965;27;20238;-53
2022/10/07 06:13:53;;;;;;;9.63;2.72;;;8.70;99.90;;;;;;5135491;27;20272;-53
2022/10/07 06:16:19;;;;;;;9.18;3.30;;;8.70;99.90;;;;;;5135546;27;20523;-53
2022/10/07 06:18:46;;;;;;;7.32;2.10;;;8.80;99.90;;;;;;5134502;27;20210;-54
2022/10/07 06:21:12;;;;;;;8.15;2.65;;;8.80;99.90;;;;;;5135942;27;20176;-53
2022/10/07 06:23:38;;;;;;;6.65;3.03;;;8.80;99.90;;;;;;5135248;27;20171;-53
2022/10/07 06:26:05;;;;;;;7.40;3.08;;;8.90;99.90;;;;;;5135186;27;20207;-53
2022/10/07 06:28:33;;;;;;;12.90;5.10;;;9.00;99.90;;;;;;5135228;27;20629;-53
2022/10/07 06:31:01;;;;;;;13.60;3.78;;;9.00;99.90;;;;;;5135234;27;20164;-54
2022/10/07 06:33:27;;;;;;;10.77;3.30;;;9.00;99.90;;;;;;5135266;27;20176;-53
2022/10/07 06:35:55;;;;;;;8.05;2.30;;;9.10;99.90;;;;;;5135119;27;20176;-53
2022/10/07 06:38:20;;;;;;;9.40;2.50;;;9.10;99.90;;;;;;5135322;27;20176;-54
2022/10/07 06:40:57;;;;;;;7.38;2.30;;;9.10;99.90;;;;;;5135067;27;20531;-53
2022/10/07 06:43:25;;;;;;;8.13;2.45;;;9.10;99.90;;;;;;5134815;27;20172;-53
2022/10/07 06:45:50;;;;;;;6.40;3.17;;;9.20;99.90;;;;;;5135069;27;20260;-53
2022/10/07 06:48:17;;;;;;;7.00;2.15;;;9.30;99.90;;;;;;5134919;27;20172;-53
2022/10/07 06:50:50;;;;;;;8.05;2.58;;;9.30;99.90;;;;;;5135191;27;20617;-53
2022/10/07 06:53:16;;;;;;;8.82;3.10;;;9.40;99.90;;;;;;5134994;27;20172;-53
2022/10/07 06:55:42;;;;;;;8.60;2.90;;;9.50;99.90;;;;;;5134915;27;20223;-53
2022/10/07 06:58:08;;;;;;;7.63;2.35;;;9.60;99.90;;;;;;5134698;27;20164;-53
2022/10/07 07:00:33;;;;;;;10.85;2.97;;;9.70;99.90;;;;;;5134874;27;20213;-53
2022/10/07 07:03:00;;;;;;;17.75;3.42;;;9.80;99.90;;;;;;5134541;27;20239;-54
2022/10/07 07:05:36;;;;;;;9.27;2.92;;;9.90;99.90;;;;;;5134563;27;20199;-54
2022/10/07 07:08:01;;;;;;;6.57;2.80;;;10.00;99.90;;;;;;5134525;27;20213;-54
2022/10/07 07:10:27;;;;;;;6.60;2.45;;;10.20;99.90;;;;;;5134540;27;20168;-54
2022/10/07 07:12:53;;;;;;;17.02;6.40;;;10.80;99.90;;;;;;5134252;27;20192;-54
2022/10/07 07:15:20;;;;;;;33.70;7.10;;;11.30;99.90;;;;;;5134467;27;20178;-55
2022/10/07 07:17:46;;;;;;;87.05;37.90;;;11.80;99.90;;;;;;5134409;27;20208;-54
2022/10/07 07:20:13;;;;;;;6.18;3.13;;;12.00;99.90;;;;;;5134738;27;20204;-54
2022/10/07 07:22:38;;;;;;;37.13;22.55;;;12.40;99.90;;;;;;5134287;27;20179;-54
2022/10/07 07:25:04;;;;;;;13.55;5.07;;;12.50;99.90;;;;;;5133938;27;20522;-53
2022/10/07 07:27:30;;;;;;;8.23;3.38;;;12.40;99.90;;;;;;5133960;27;20216;-53
2022/10/07 07:29:57;;;;;;;13.48;3.42;;;12.50;99.90;;;;;;5133793;27;20164;-53
2022/10/07 07:32:23;;;;;;;10.00;2.72;;;12.60;99.90;;;;;;5132463;27;20160;-53
2022/10/07 07:34:49;;;;;;;14.60;2.72;;;12.60;99.90;;;;;;5133854;27;20167;-53
2022/10/07 07:37:16;;;;;;;7.97;2.50;;;12.50;99.90;;;;;;5134247;27;20546;-54
2022/10/07 07:39:43;;;;;;;11.13;2.55;;;12.30;99.90;;;;;;5134106;27;20247;-53
2022/10/07 07:42:09;;;;;;;9.05;2.55;;;12.20;99.90;;;;;;5133715;27;20641;-53
2022/10/07 07:44:36;;;;;;;13.18;3.20;;;12.10;99.90;;;;;;5133723;27;20170;-54
2022/10/07 07:47:02;;;;;;;11.05;2.33;;;12.00;99.90;;;;;;5133946;27;20240;-54
2022/10/07 07:49:30;;;;;;;14.50;3.53;;;12.00;99.90;;;;;;5133936;27;20184;-53
2022/10/07 07:51:57;;;;;;;8.85;2.75;;;12.10;99.90;;;;;;5133894;27;20175;-54
2022/10/07 07:54:25;;;;;;;13.82;2.80;;;12.10;99.90;;;;;;5133318;27;20172;-53
2022/10/07 07:56:51;;;;;;;12.23;3.25;;;;;;;;;;5133155;27;20219;-54
2022/10/07 07:59:17;;;;;;;7.57;3.00;;;12.10;99.90;;;;;;5133499;27;20160;-53
2022/10/07 08:01:44;;;;;;;10.90;2.90;;;12.20;99.90;;;;;;5133738;27;20209;-53
2022/10/07 08:04:09;;;;;;;8.98;2.85;;;12.30;99.90;;;;;;5133665;27;20164;-54
2022/10/07 08:06:36;;;;;;;11.75;2.30;;;12.40;99.90;;;;;;5132015;27;20215;-54
2022/10/07 08:09:02;;;;;;;8.70;2.75;;;12.60;99.90;;;;;;5133555;27;20199;-53
2022/10/07 08:11:28;;;;;;;12.93;2.50;;;12.60;99.90;;;;;;5133658;27;20522;-54
2022/10/07 08:13:55;;;;;;;7.55;2.95;;;12.70;99.90;;;;;;5133267;27;20309;-53
2022/10/07 08:16:21;;;;;;;16.70;3.22;;;12.80;99.90;;;;;;5133422;27;20254;-53
2022/10/07 08:18:49;;;;;;;9.27;2.47;;;12.80;99.90;;;;;;5133245;27;20195;-53
2022/10/07 08:21:17;;;;;;;8.75;2.92;;;12.80;99.90;;;;;;5133705;27;20164;-53
2022/10/07 08:23:43;;;;;;;10.07;2.78;;;13.00;99.90;;;;;;5133283;27;20172;-54
2022/10/07 08:26:09;;;;;;;11.18;3.22;;;13.00;99.90;;;;;;5131614;27;20557;-55
2022/10/07 08:28:35;;;;;;;8.65;2.92;;;13.20;99.90;;;;;;5132995;27;20236;-56
2022/10/07 08:31:03;;;;;;;5.93;2.58;;;13.30;99.90;;;;;;5133038;27;20204;-54
2022/10/07 08:33:33;;;;;;;14.80;3.60;;;13.40;99.90;;;;;;5133171;27;20749;-53
2022/10/07 08:36:00;;;;;;;11.25;3.22;;;13.50;99.90;;;;;;5132922;27;20680;-54
2022/10/07 08:38:33;;;;;;;13.27;4.38;;;13.60;99.90;;;;;;5132927;27;20542;-54
2022/10/07 08:41:08;;;;;;;10.70;3.13;;;13.80;99.90;;;;;;5133048;27;20547;-55
2022/10/07 08:43:39;;;;;;;8.88;3.17;;;13.80;99.90;;;;;;5131569;27;20183;-53
2022/10/07 08:46:11;;;;;;;9.70;2.95;;;13.90;99.90;;;;;;5132711;27;20569;-53
2022/10/07 08:48:39;;;;;;;10.77;2.50;;;14.10;99.90;;;;;;5133067;27;20732;-53
2022/10/07 08:51:25;;;;;;;10.75;2.45;;;14.00;99.90;;;;;;5133080;27;21095;-53
2022/10/07 08:53:57;;;;;;;14.27;3.15;;;14.00;99.90;;;;;;5132684;27;20652;-53
2022/10/07 08:56:24;;;;;;;16.88;3.15;;;14.20;99.90;;;;;;5132548;27;20352;-54
2022/10/07 08:59:27;;;;;;;14.82;3.30;;;14.10;99.90;;;;;;5132896;27;20527;-53
2022/10/07 09:02:01;;;;;;;12.55;2.53;;;14.20;99.90;;;;;;5126154;27;20186;-54
2022/10/07 09:04:52;;;;;;;8.30;2.65;;;14.20;99.90;;;;;;5132731;27;20224;-53
2022/10/07 09:07:26;;;;;;;8.25;2.40;;;14.10;99.90;;;;;;5135571;27;20175;-55
2022/10/07 09:10:00;;;;;;;10.93;2.17;;;14.30;99.90;;;;;;5136853;27;20267;-54
2022/10/07 09:12:56;;;;;;;13.15;2.70;;;14.40;99.90;;;;;;5137039;27;20171;-54
2022/10/07 09:15:54;;;;;;;8.05;2.40;;;14.20;99.90;;;;;;5137008;27;20175;-54
2022/10/07 09:18:38;;;;;;;9.68;2.25;;;14.40;99.90;;;;;;5135389;27;20625;-54
2022/10/07 09:21:15;;;;;;;6.97;2.22;;;14.20;99.90;;;;;;5136555;27;20178;-53
2022/10/07 09:23:42;;;;;;;8.23;2.30;;;14.20;99.90;;;;;;5137154;27;20169;-54
2022/10/07 09:26:12;;;;;;;14.98;3.10;;;14.30;99.90;;;;;;5136388;27;20669;-54
2022/10/07 09:28:38;;;;;;;9.70;2.78;;;14.40;99.90;;;;;;5136424;27;20168;-55
2022/10/07 09:31:04;;;;;;;11.85;3.15;;;14.30;99.90;;;;;;5136558;27;20168;-58
2022/10/07 09:33:29;;;;;;;7.72;2.38;;;14.40;99.90;;;;;;5134901;27;20164;-54
2022/10/07 09:36:10;;;;;;;9.90;2.40;;;14.40;99.90;;;;;;5135629;27;20688;-55
2022/10/07 09:38:38;;;;;;;10.23;2.90;;;14.40;99.90;;;;;;5134814;27;20179;-55
2022/10/07 09:41:34;;;;;;;12.25;2.47;;;14.60;99.90;;;;;;5135076;27;20297;-60
2022/10/07 09:44:14;;;;;;;11.30;2.50;;;14.60;99.90;;;;;;5135133;27;20199;-56
2022/10/07 09:46:40;;;;;;;8.95;2.28;;;14.70;99.90;;;;;;5134938;27;20211;-53
2022/10/07 09:49:06;;;;;;;9.50;2.85;;;14.70;99.90;;;;;;5135161;27;20637;-54
2022/10/07 09:51:34;;;;;;;10.38;2.30;;;14.70;99.90;;;;;;5134759;27;20243;-55
2022/10/07 09:54:05;;;;;;;7.85;2.17;;;15.00;99.90;;;;;;5134589;27;20168;-54
2022/10/07 09:56:43;;;;;;;8.55;2.90;;;15.00;99.90;;;;;;5134666;27;20265;-63
2022/10/07 09:59:26;;;;;;;5.60;2.13;;;15.30;99.90;;;;;;5134897;27;20171;-59
2022/10/07 10:02:12;;;;;;;9.13;2.70;;;15.40;99.90;;;;;;5134683;27;20225;-56
2022/10/07 10:04:49;;;;;;;8.77;2.63;;;15.40;99.90;;;;;;5112591;27;20172;-56
2022/10/07 10:07:35;;;;;;;17.98;2.85;;;15.60;99.90;;;;;;5134439;27;20191;-58
2022/10/07 10:10:17;;;;;;;7.15;2.35;;;15.90;99.90;;;;;;5134559;27;20576;-57
2022/10/07 10:12:48;;;;;;;10.48;2.92;;;16.00;99.90;;;;;;5134782;27;20184;-61
2022/10/07 10:15:37;;;;;;;11.43;2.67;;;15.80;99.90;;;;;;5133357;27;20625;-57
2022/10/07 10:18:38;;;;;;;12.05;2.90;;;15.60;99.90;;;;;;5133321;27;20164;-60
2022/10/07 10:21:20;;;;;;;8.20;2.88;;;15.70;99.90;;;;;;5134391;27;20191;-56
2022/10/07 10:23:49;;;;;;;13.48;3.33;;;15.80;99.90;;;;;;5134172;27;20621;-55
2022/10/07 10:26:30;;;;;;;14.20;3.78;;;15.60;99.90;;;;;;5133997;27;20207;-53
2022/10/07 10:29:19;;;;;;;7.15;2.25;;;15.40;99.90;;;;;;5134123;27;20701;-53
2022/10/07 10:32:00;;;;;;;10.73;2.30;;;15.60;99.90;;;;;;5132670;27;20800;-53
2022/10/07 10:34:47;;;;;;;13.68;2.10;;;15.80;99.90;;;;;;5133924;27;20195;-54
2022/10/07 10:37:20;;;;;;;7.38;1.83;;;16.00;99.90;;;;;;5134400;27;20168;-54
2022/10/07 10:40:13;;;;;;;7.93;2.45;;;16.40;99.90;;;;;;5133962;27;20197;-54
2022/10/07 10:43:16;;;;;;;12.07;2.38;;;16.60;99.90;;;;;;5132508;27;20168;-54
2022/10/07 10:46:12;;;;;;;13.57;2.03;;;16.30;99.90;;;;;;5134067;27;20203;-54
2022/10/07 10:48:57;;;;;;;8.68;2.30;;;16.60;99.90;;;;;;5133763;27;20172;-54
2022/10/07 10:51:41;;;;;;;10.23;2.35;;;16.40;99.90;;;;;;5133569;27;20164;-54
2022/10/07 10:54:22;;;;;;;11.70;2.20;;;16.70;99.90;;;;;;5132190;27;20178;-55
2022/10/07 10:57:35;;;;;;;7.03;2.33;;;16.50;99.90;;;;;;5133378;27;20211;-54
2022/10/07 11:00:08;;;;;;;9.25;2.22;;;16.80;99.90;;;;;;5131225;27;20645;-54
2022/10/07 11:02:42;;;;;;;12.35;2.67;;;16.80;99.90;;;;;;5133408;27;20156;-54
2022/10/07 11:05:44;;;;;;;6.30;2.17;;;16.70;99.90;;;;;;5133258;27;20384;-54
2022/10/07 11:08:31;;;;;;;10.23;2.38;;;17.00;99.90;;;;;;5090430;28;20572;-54
2022/10/07 11:11:05;;;;;;;10.75;2.20;;;17.20;99.90;;;;;;5110302;28;20181;-54
2022/10/07 11:13:42;;;;;;;7.03;2.35;;;17.20;99.90;;;;;;5111388;28;20160;-54
2022/10/07 11:16:26;;;;;;;8.75;2.45;;;17.20;99.90;;;;;;5112664;28;20183;-54
2022/10/07 11:19:22;;;;;;;11.10;3.33;;;17.50;99.90;;;;;;5112469;27;20247;-54
2022/10/07 11:21:53;;;;;;;9.18;2.35;;;17.60;99.90;;;;;;5112526;28;20302;-54
2022/10/07 11:24:25;;;;;;;10.77;3.03;;;17.70;99.90;;;;;;5112605;28;20251;-53
2022/10/07 11:27:04;;;;;;;9.25;2.30;;;17.70;99.90;;;;;;5112179;28;20543;-54
2022/10/07 11:29:53;;;;;;;7.10;2.55;;;17.80;99.90;;;;;;5112305;28;20161;-54
2022/10/07 11:32:34;;;;;;;9.38;2.55;;;17.90;99.90;;;;;;5112225;28;20533;-54
2022/10/07 11:35:12;;;;;;;10.32;3.03;;;18.00;99.90;;;;;;5112176;28;20210;-54
2022/10/07 11:37:46;;;;;;;9.38;2.45;;;18.10;99.90;;;;;;5112372;28;20172;-54
2022/10/07 11:40:11;;;;;;;9.18;2.70;;;18.40;99.90;;;;;;5112446;28;20647;-54
2022/10/07 11:42:42;;;;;;;10.13;2.42;;;18.20;99.90;;;;;;5111958;28;20256;-54
2022/10/07 11:45:18;;;;;;;8.88;2.30;;;18.10;99.90;;;;;;5111992;28;20208;-54
2022/10/07 11:47:52;;;;;;;11.80;2.65;;;18.00;99.90;;;;;;5112028;28;20282;-54
2022/10/07 11:50:32;;;;;;;9.32;2.60;;;17.90;99.90;;;;;;5111972;27;20164;-54
2022/10/07 11:53:14;;;;;;;11.05;2.40;;;18.00;99.90;;;;;;5111858;28;20203;-55
2022/10/07 11:55:46;;;;;;;11.02;2.30;;;18.00;99.90;;;;;;5112000;28;20255;-54
2022/10/07 11:58:43;;;;;;;13.85;3.10;;;18.00;99.90;;;;;;5112159;28;20175;-54
2022/10/07 12:01:29;;;;;;;12.15;2.92;;;18.10;99.90;;;;;;5103446;28;20177;-54
2022/10/07 12:04:00;;;;;;;11.05;2.50;;;18.40;99.90;;;;;;5111842;28;20172;-54
2022/10/07 12:06:27;;;;;;;9.80;2.38;;;18.50;99.90;;;;;;5111419;28;20200;-54
2022/10/07 12:08:53;;;;;;;13.93;2.97;;;18.60;99.90;;;;;;5111652;28;20222;-54
2022/10/07 12:11:19;;;;;;;8.48;3.30;;;18.40;99.90;;;;;;5111491;28;20245;-53
2022/10/07 12:13:49;;;;;;;13.02;3.17;;;18.40;99.90;;;;;;5111403;28;20653;-54
2022/10/07 12:16:27;;;;;;;10.38;2.45;;;18.60;99.90;;;;;;5111577;28;20202;-54
2022/10/07 12:19:11;;;;;;;12.43;2.60;;;18.40;99.90;;;;;;5111435;28;20194;-54
2022/10/07 12:21:58;;;;;;;9.38;2.53;;;18.30;99.90;;;;;;5111356;28;20651;-54
2022/10/07 12:24:37;;;;;;;8.05;2.65;;;18.30;99.90;;;;;;5111378;28;20176;-53
2022/10/07 12:27:22;;;;;;;10.73;2.47;;;18.30;99.90;;;;;;5111456;28;20183;-53
2022/10/07 12:30:01;;;;;;;10.23;2.65;;;18.40;99.90;;;;;;5111295;28;20163;-54
2022/10/07 12:32:49;;;;;;;7.22;2.20;;;18.60;99.90;;;;;;5111414;28;20176;-54
2022/10/07 12:35:33;;;;;;;8.15;2.63;;;18.50;99.90;;;;;;5111078;28;20173;-54
2022/10/07 12:38:22;;;;;;;5.70;2.40;;;18.50;99.90;;;;;;5111406;28;20176;-54
2022/10/07 12:41:22;;;;;;;6.88;2.20;;;18.40;99.90;;;;;;5110609;28;20536;-54
2022/10/07 12:44:05;;;;;;;10.30;2.10;;;18.60;99.90;;;;;;5093861;28;20177;-54
2022/10/07 12:46:49;;;;;;;7.13;2.40;;;18.60;99.90;;;;;;5110843;28;20581;-54
2022/10/07 12:49:43;;;;;;;14.70;3.47;;;18.60;99.90;;;;;;5110990;28;20198;-54
2022/10/07 12:52:39;;;;;;;10.35;2.33;;;18.80;99.90;;;;;;5111351;28;20216;-54
2022/10/07 12:55:26;;;;;;;12.20;2.95;;;18.80;99.90;;;;;;5110800;28;20614;-54
2022/10/07 12:59:45;;;;;;;8.18;2.17;;;18.80;99.90;;;;;;5110785;28;20202;-54
2022/10/07 13:00:58;;;;;;;8.68;2.53;;;18.90;99.90;;;;;;5111091;28;20191;-54
2022/10/07 13:04:00;;;;;;;9.77;2.30;;;19.10;99.90;;;;;;5111165;28;20525;-54
2022/10/07 13:06:51;;;;;;;10.13;2.13;;;19.10;99.90;;;;;;5110956;28;20207;-54
2022/10/07 13:09:22;;;;;;;7.63;2.30;;;18.90;99.90;;;;;;5110848;28;20169;-53
2022/10/07 13:12:14;;;;;;;5.45;1.98;;;18.90;99.90;;;;;;5110854;28;20195;-54
2022/10/07 13:15:10;;;;;;;13.13;3.08;;;18.90;99.90;;;;;;5105366;28;20173;-54
2022/10/07 13:17:39;;;;;;;6.43;2.10;;;19.00;99.90;;;;;;5110755;28;20165;-54
2022/10/07 13:20:26;;;;;;;8.65;2.30;;;19.10;99.90;;;;;;5110656;28;20161;-54